Disclaimer

Please do not use the information listed here in-flight or in-navigation, as they are not provided to us by the airports but are provided by volunteers, so they might be outdated.

Search


Regions


Airport information page

Radio informations:
Brisbane Center - 133.05 MHz
Common traffic adv. frequency (CTAF) - 126.7 MHz

Airport informations:
Latitude: 32° 33' 45.00" S
Longitude: 149° 36' 40.00" E
Elevation: 1545 feet - 471 meters
Operating hours: N/A
Operating agency: Civil government, landing fees and diplomatic clearance may be required
Timezone: UTC+10(+11DT)
Fuel: 100/130 MIL Spec, low lead, aviation gasoline (BLUE)

Runway information:
04/22 - 5705 x 98 feet< - >1739 x 30 meters
16/34 - 3527 x 98 feet< - >1075 x 30 meters

Recent METARs:
YMDG 141500Z AUTO 05003KT 9999 // NCD 14/12 Q1017
YMDG 141600Z AUTO 00000KT 9999 // NCD 13/11 Q1017
YMDG 141700Z AUTO 00000KT 9999 // NCD 12/11 Q1017

Airport on the map: